createdAt,value
2023-04-06T00:02:20.574Z,49.66
2023-04-06T00:06:23.897Z,49.38
2023-04-06T00:10:27.605Z,49.74
2023-04-06T00:14:32.215Z,49.96
2023-04-06T00:18:35.390Z,49.91
2023-04-06T00:22:38.703Z,50.06
2023-04-06T00:26:41.949Z,50.10
2023-04-06T00:30:46.684Z,50.00
2023-04-06T00:34:49.945Z,50.00
2023-04-06T00:38:53.306Z,50.15
2023-04-06T00:42:56.780Z,50.33
2023-04-06T00:47:01.773Z,50.43
2023-04-06T00:51:05.751Z,50.54
2023-04-06T00:55:09.861Z,50.46
2023-04-06T00:59:17.859Z,50.45
2023-04-06T01:03:22.728Z,50.71
2023-04-06T01:07:26.165Z,50.65
2023-04-06T01:11:41.667Z,50.68
2023-04-06T01:15:49.364Z,51.21
2023-04-06T01:19:59.998Z,50.72
2023-04-06T01:24:10.442Z,50.77
2023-04-06T01:28:33.869Z,50.81
2023-04-06T01:32:45.928Z,50.86
2023-04-06T01:36:51.920Z,50.77
2023-04-06T01:41:03.003Z,50.85
2023-04-06T01:45:13.010Z,50.82
2023-04-06T01:49:17.673Z,50.63
2023-04-06T01:53:25.454Z,50.91
2023-04-06T01:57:34.525Z,51.14
2023-04-06T02:01:47.173Z,50.86
2023-04-06T02:05:50.561Z,50.95
2023-04-06T02:10:13.948Z,50.77
2023-04-06T02:14:18.981Z,50.90
2023-04-06T02:18:28.658Z,51.03
2023-04-06T02:22:32.170Z,50.92
2023-04-06T02:26:36.406Z,51.05
2023-04-06T02:30:41.487Z,51.05
2023-04-06T02:34:44.745Z,50.97
2023-04-06T02:38:48.047Z,51.09
2023-04-06T02:42:51.641Z,51.23
2023-04-06T02:47:04.265Z,51.25
2023-04-06T02:51:08.174Z,51.25
2023-04-06T02:55:12.711Z,51.33
2023-04-06T02:59:16.145Z,51.35
2023-04-06T03:03:28.011Z,51.41
2023-04-06T03:07:32.598Z,51.58
2023-04-06T03:11:35.870Z,51.51
2023-04-06T03:15:39.132Z,51.62
2023-04-06T03:19:51.684Z,51.86
2023-04-06T03:23:55.592Z,51.90
2023-04-06T03:27:58.902Z,51.79
2023-04-06T03:32:03.078Z,52.17
2023-04-06T03:36:17.228Z,52.10
2023-04-06T03:40:21.277Z,52.22
2023-04-06T03:44:24.502Z,52.36
2023-04-06T03:48:27.726Z,52.18
2023-04-06T03:52:32.633Z,52.33
2023-04-06T03:56:36.123Z,52.18
2023-04-06T04:00:39.743Z,52.19
2023-04-06T04:04:43.894Z,52.24
2023-04-06T04:08:48.520Z,52.36
2023-04-06T04:12:52.187Z,52.47
2023-04-06T04:16:55.574Z,52.57
2023-04-06T04:20:58.758Z,52.46
2023-04-06T04:25:03.500Z,52.41
2023-04-06T04:29:09.777Z,52.65
2023-04-06T04:33:14.515Z,52.63
2023-04-06T04:37:18.964Z,52.78
2023-04-06T04:41:29.968Z,52.97
2023-04-06T04:45:34.168Z,53.10
2023-04-06T04:49:47.448Z,53.11
2023-04-06T04:53:57.550Z,53.41
2023-04-06T04:58:06.743Z,53.25
2023-04-06T05:02:27.294Z,53.38
2023-04-06T05:06:49.562Z,53.58
2023-04-06T05:10:54.505Z,53.63
2023-04-06T05:15:00.502Z,53.52
2023-04-06T05:19:04.090Z,53.87
2023-04-06T05:23:15.576Z,54.25
2023-04-06T05:27:19.885Z,53.83
2023-04-06T05:31:26.117Z,53.66
2023-04-06T05:35:29.853Z,53.58
2023-04-06T05:39:38.021Z,53.81
2023-04-06T05:43:41.315Z,53.83
2023-04-06T05:47:46.453Z,54.39
2023-04-06T05:51:58.958Z,53.95
2023-04-06T05:56:03.306Z,54.08
2023-04-06T06:00:10.038Z,53.97
2023-04-06T06:04:21.628Z,53.84
2023-04-06T06:08:28.712Z,53.90
2023-04-06T06:12:33.366Z,54.02
2023-04-06T06:16:37.651Z,54.13
2023-04-06T06:20:44.672Z,53.85
2023-04-06T06:24:47.943Z,53.82
2023-04-06T06:28:54.239Z,53.73
2023-04-06T06:32:57.978Z,53.76
2023-04-06T06:37:03.861Z,53.51
2023-04-06T06:41:07.493Z,53.47
2023-04-06T06:45:13.181Z,53.45
2023-04-06T06:49:17.239Z,53.44
2023-04-06T06:53:21.987Z,53.57
2023-04-06T06:57:25.793Z,53.73
2023-04-06T07:01:30.280Z,53.54
2023-04-06T07:05:34.848Z,53.70
2023-04-06T07:09:39.503Z,53.24
2023-04-06T07:13:44.356Z,53.43
2023-04-06T07:17:47.796Z,53.80
2023-04-06T07:21:51.587Z,53.33
2023-04-06T07:25:56.382Z,52.78
2023-04-06T07:29:59.651Z,52.54
2023-04-06T07:34:03.668Z,51.65
2023-04-06T07:38:07.077Z,51.57
2023-04-06T07:42:12.992Z,51.49
2023-04-06T07:46:16.728Z,51.80
2023-04-06T07:50:20.314Z,51.46
2023-04-06T07:54:24.602Z,51.40
2023-04-06T07:58:29.539Z,51.68
2023-04-06T08:02:33.693Z,50.38
2023-04-06T08:06:37.508Z,50.50
2023-04-06T08:10:40.900Z,50.79
2023-04-06T08:14:45.577Z,51.02
2023-04-06T08:18:48.828Z,50.91
2023-04-06T08:22:53.660Z,50.94
2023-04-06T08:26:57.058Z,51.02
2023-04-06T08:31:01.628Z,50.12
2023-04-06T08:35:05.054Z,50.25
2023-04-06T08:39:08.265Z,50.17
2023-04-06T08:43:14.995Z,50.55
2023-04-06T08:47:20.553Z,50.00
2023-04-06T08:51:26.384Z,50.44
2023-04-06T08:55:29.829Z,50.27
2023-04-06T08:59:34.147Z,49.94
2023-04-06T09:03:40.874Z,49.49
2023-04-06T09:07:44.471Z,49.90
2023-04-06T09:11:49.043Z,49.34
2023-04-06T09:16:01.379Z,47.96
2023-04-06T09:20:06.777Z,47.18
2023-04-06T09:24:11.421Z,47.32
2023-04-06T09:28:15.388Z,46.78
2023-04-06T09:32:18.784Z,45.97
2023-04-06T09:36:32.413Z,46.09
2023-04-06T09:40:35.680Z,44.95
2023-04-06T09:44:38.886Z,45.76
2023-04-06T09:48:42.266Z,45.44
2023-04-06T09:52:50.941Z,45.27
2023-04-06T09:56:59.710Z,45.21
2023-04-06T10:01:09.229Z,44.29
2023-04-06T10:05:34.589Z,44.24
2023-04-06T10:09:39.782Z,44.43
2023-04-06T10:13:43.386Z,43.98
2023-04-06T10:17:47.038Z,42.93
2023-04-06T10:21:56.954Z,43.15
2023-04-06T10:26:03.127Z,41.92
2023-04-06T10:30:07.933Z,41.40
2023-04-06T10:34:11.216Z,41.25
2023-04-06T10:38:15.498Z,40.32
2023-04-06T10:42:20.289Z,40.39
2023-04-06T10:46:27.542Z,40.27
2023-04-06T10:50:32.043Z,40.64
2023-04-06T10:54:35.587Z,40.89
2023-04-06T10:58:40.963Z,39.45
2023-04-06T11:02:44.362Z,39.41
2023-04-06T11:06:50.162Z,39.84
2023-04-06T11:10:53.338Z,39.37
2023-04-06T11:15:03.113Z,37.34
2023-04-06T11:19:08.026Z,38.32
2023-04-06T11:23:11.218Z,37.46
2023-04-06T11:27:16.121Z,37.67
2023-04-06T11:31:20.784Z,36.85
2023-04-06T11:35:26.055Z,37.69
2023-04-06T11:39:31.295Z,38.48
2023-04-06T11:43:34.523Z,36.92
2023-04-06T11:47:39.890Z,36.28
2023-04-06T11:51:43.115Z,37.46
2023-04-06T11:55:48.337Z,37.88
2023-04-06T11:59:51.813Z,37.93
2023-04-06T12:03:56.703Z,37.74
2023-04-06T12:08:01.211Z,37.32
2023-04-06T12:12:06.660Z,36.38
2023-04-06T12:16:09.955Z,35.96
2023-04-06T12:20:25.937Z,36.00
2023-04-06T12:24:31.031Z,35.58
2023-04-06T12:28:34.241Z,36.49
2023-04-06T12:32:37.471Z,35.78
2023-04-06T12:36:42.193Z,36.55
2023-04-06T12:40:45.613Z,36.28
2023-04-06T12:44:48.851Z,35.97
2023-04-06T12:48:54.686Z,35.73
2023-04-06T12:52:59.409Z,35.60
2023-04-06T12:57:03.119Z,36.07
2023-04-06T13:01:09.228Z,36.82
2023-04-06T13:05:12.854Z,36.47
2023-04-06T13:09:17.534Z,36.61
2023-04-06T13:13:25.384Z,36.69
2023-04-06T13:17:29.832Z,36.36
2023-04-06T13:21:33.134Z,35.42
2023-04-06T13:25:37.767Z,35.53
2023-04-06T13:29:41.141Z,35.20
2023-04-06T13:33:44.373Z,36.64
2023-04-06T13:37:47.608Z,35.92
2023-04-06T13:41:52.312Z,36.48
2023-04-06T13:45:59.195Z,35.82
2023-04-06T13:50:02.546Z,36.41
2023-04-06T13:54:07.269Z,36.26
2023-04-06T13:58:11.868Z,35.95
2023-04-06T14:02:14.998Z,35.75
2023-04-06T14:06:30.545Z,35.28
2023-04-06T14:10:41.914Z,36.17
2023-04-06T14:14:46.402Z,35.84
2023-04-06T14:18:49.474Z,35.79
2023-04-06T14:22:53.653Z,35.81
2023-04-06T14:26:57.045Z,36.06
2023-04-06T14:31:03.911Z,36.23
2023-04-06T14:35:09.461Z,36.09
2023-04-06T14:39:12.772Z,36.03
2023-04-06T14:43:16.175Z,36.17
2023-04-06T14:47:22.584Z,35.67
2023-04-06T14:51:26.671Z,36.30
2023-04-06T14:55:29.724Z,36.24
2023-04-06T14:59:35.893Z,35.51
2023-04-06T15:03:42.461Z,35.93
2023-04-06T15:07:45.962Z,35.43
2023-04-06T15:11:49.227Z,35.03
2023-04-06T15:15:53.491Z,34.76
2023-04-06T15:19:57.965Z,35.70
2023-04-06T15:24:01.060Z,35.59
2023-04-06T15:28:04.216Z,34.90
2023-04-06T15:32:07.296Z,35.75
2023-04-06T15:36:25.115Z,35.16
2023-04-06T15:40:28.254Z,35.30
2023-04-06T15:44:31.573Z,35.72
2023-04-06T15:48:34.979Z,35.07
2023-04-06T15:52:40.052Z,35.41
2023-04-06T15:56:43.331Z,35.46
2023-04-06T16:00:46.551Z,36.05
2023-04-06T16:04:49.728Z,36.31
2023-04-06T16:08:54.676Z,36.33
2023-04-06T16:12:57.692Z,35.78
2023-04-06T16:17:00.952Z,35.55
2023-04-06T16:21:04.180Z,35.82
2023-04-06T16:25:11.880Z,35.67
2023-04-06T16:29:16.991Z,35.63
2023-04-06T16:33:20.159Z,35.43
2023-04-06T16:37:23.187Z,36.08
2023-04-06T16:41:31.049Z,36.20
2023-04-06T16:45:34.304Z,36.22
2023-04-06T16:49:37.403Z,36.30
2023-04-06T16:53:40.804Z,36.13
2023-04-06T16:57:45.519Z,37.08
2023-04-06T17:01:48.615Z,37.70
2023-04-06T17:05:51.810Z,37.12
2023-04-06T17:09:54.835Z,36.88
2023-04-06T17:13:59.249Z,36.95
2023-04-06T17:18:02.436Z,37.04
2023-04-06T17:22:05.656Z,37.77
2023-04-06T17:26:09.551Z,37.63
2023-04-06T17:30:17.045Z,38.00
2023-04-06T17:34:21.321Z,37.84
2023-04-06T17:38:24.409Z,38.00
2023-04-06T17:42:27.618Z,37.92
2023-04-06T17:46:32.657Z,37.85
2023-04-06T17:50:39.006Z,38.03
2023-04-06T17:54:42.125Z,37.54
2023-04-06T17:58:45.527Z,37.60
2023-04-06T18:02:49.967Z,37.78
2023-04-06T18:06:53.244Z,38.39
2023-04-06T18:10:56.443Z,38.01
2023-04-06T18:14:59.523Z,38.20
2023-04-06T18:19:04.919Z,38.42
2023-04-06T18:23:08.013Z,38.30
2023-04-06T18:27:11.160Z,38.75
2023-04-06T18:31:14.617Z,38.81
2023-04-06T18:35:19.117Z,38.67
2023-04-06T18:39:22.160Z,39.47
2023-04-06T18:43:25.418Z,39.05
2023-04-06T18:47:28.636Z,39.49
2023-04-06T18:51:33.472Z,39.81
2023-04-06T18:55:36.570Z,39.38
2023-04-06T18:59:39.617Z,39.60
2023-04-06T19:03:42.863Z,39.67
2023-04-06T19:07:52.395Z,39.72
2023-04-06T19:11:55.842Z,39.83
2023-04-06T19:15:58.881Z,40.11
2023-04-06T19:20:02.869Z,40.21
2023-04-06T19:24:07.854Z,40.22
2023-04-06T19:28:10.956Z,40.62
2023-04-06T19:32:16.185Z,40.64
2023-04-06T19:36:19.621Z,40.78
2023-04-06T19:40:24.169Z,40.81
2023-04-06T19:44:27.376Z,40.58
2023-04-06T19:48:30.745Z,40.58
2023-04-06T19:52:33.840Z,40.80
2023-04-06T19:56:39.625Z,41.04
2023-04-06T20:00:42.800Z,40.96
2023-04-06T20:04:46.161Z,41.27
2023-04-06T20:08:49.521Z,41.13
2023-04-06T20:12:53.947Z,41.08
2023-04-06T20:16:57.192Z,41.12
2023-04-06T20:21:00.391Z,40.87
2023-04-06T20:25:03.456Z,40.95
2023-04-06T20:29:08.115Z,41.34
2023-04-06T20:33:11.253Z,41.73
2023-04-06T20:37:14.515Z,42.25
2023-04-06T20:41:17.703Z,42.32
2023-04-06T20:45:22.151Z,41.98
2023-04-06T20:49:25.379Z,42.21
2023-04-06T20:53:28.451Z,42.20
2023-04-06T20:57:32.156Z,42.35
2023-04-06T21:01:37.086Z,42.26
2023-04-06T21:05:40.098Z,42.44
2023-04-06T21:09:43.431Z,42.63
2023-04-06T21:13:46.740Z,42.88
2023-04-06T21:17:51.233Z,43.11
2023-04-06T21:21:54.365Z,43.45
2023-04-06T21:25:57.975Z,43.77
2023-04-06T21:30:00.979Z,43.54
2023-04-06T21:34:09.913Z,43.55
2023-04-06T21:38:13.334Z,43.65
2023-04-06T21:42:16.372Z,43.51
2023-04-06T21:46:19.377Z,43.78
2023-04-06T21:50:24.047Z,43.88
2023-04-06T21:54:27.121Z,43.81
2023-04-06T21:58:30.175Z,43.89
2023-04-06T22:02:34.119Z,44.06
2023-04-06T22:06:39.319Z,43.92
2023-04-06T22:10:42.554Z,43.93
2023-04-06T22:14:45.613Z,44.09
2023-04-06T22:18:48.597Z,44.50
2023-04-06T22:22:53.085Z,44.49
2023-04-06T22:26:56.665Z,44.64
2023-04-06T22:30:59.738Z,44.86
2023-04-06T22:35:02.943Z,45.16
2023-04-06T22:39:07.407Z,45.16
2023-04-06T22:43:10.535Z,45.15
2023-04-06T22:47:14.457Z,45.45
2023-04-06T22:51:17.669Z,45.67
2023-04-06T22:55:22.377Z,45.96
2023-04-06T22:59:25.557Z,45.63
2023-04-06T23:03:28.726Z,45.15
2023-04-06T23:07:32.815Z,44.86
2023-04-06T23:11:37.611Z,44.81
2023-04-06T23:15:40.681Z,45.00
2023-04-06T23:19:43.682Z,44.71
2023-04-06T23:23:46.711Z,44.82
2023-04-06T23:27:52.333Z,44.87
2023-04-06T23:31:55.474Z,44.69
2023-04-06T23:35:58.544Z,44.74
2023-04-06T23:40:01.974Z,44.98
2023-04-06T23:44:06.665Z,45.08
2023-04-06T23:48:09.904Z,45.03
2023-04-06T23:52:13.052Z,45.09
2023-04-06T23:56:16.209Z,44.79
